sensor_id;sensor_type;location;lat;lon;timestamp;P1;durP1;ratioP1;P2;durP2;ratioP2
23714;SDS011;12036;50.858;4.472;2023-04-27T00:00:57;13.80;;;7.70;;
23714;SDS011;12036;50.858;4.472;2023-04-27T00:03:23;16.42;;;7.70;;
23714;SDS011;12036;50.858;4.472;2023-04-27T00:05:48;11.73;;;8.00;;
23714;SDS011;12036;50.858;4.472;2023-04-27T00:08:14;16.38;;;8.20;;
23714;SDS011;12036;50.858;4.472;2023-04-27T00:10:40;20.35;;;8.02;;
23714;SDS011;12036;50.858;4.472;2023-04-27T00:13:05;15.93;;;8.45;;
23714;SDS011;12036;50.858;4.472;2023-04-27T00:15:31;13.32;;;7.45;;
23714;SDS011;12036;50.858;4.472;2023-04-27T00:17:57;12.18;;;8.23;;
23714;SDS011;12036;50.858;4.472;2023-04-27T00:20:22;13.32;;;8.52;;
23714;SDS011;12036;50.858;4.472;2023-04-27T00:22:49;13.45;;;8.05;;
23714;SDS011;12036;50.858;4.472;2023-04-27T00:25:14;14.82;;;8.38;;
23714;SDS011;12036;50.858;4.472;2023-04-27T00:27:40;13.27;;;8.40;;
23714;SDS011;12036;50.858;4.472;2023-04-27T00:30:06;11.82;;;8.23;;
23714;SDS011;12036;50.858;4.472;2023-04-27T00:32:32;13.80;;;8.25;;
23714;SDS011;12036;50.858;4.472;2023-04-27T00:34:57;13.70;;;8.70;;
23714;SDS011;12036;50.858;4.472;2023-04-27T00:37:23;14.85;;;8.98;;
23714;SDS011;12036;50.858;4.472;2023-04-27T00:39:49;13.43;;;8.65;;
23714;SDS011;12036;50.858;4.472;2023-04-27T00:42:14;17.30;;;8.80;;
23714;SDS011;12036;50.858;4.472;2023-04-27T00:44:43;11.48;;;8.25;;
23714;SDS011;12036;50.858;4.472;2023-04-27T00:47:10;12.20;;;7.75;;
23714;SDS011;12036;50.858;4.472;2023-04-27T00:49:36;13.43;;;8.40;;
23714;SDS011;12036;50.858;4.472;2023-04-27T00:52:02;12.38;;;8.65;;
23714;SDS011;12036;50.858;4.472;2023-04-27T00:54:28;13.73;;;8.30;;
23714;SDS011;12036;50.858;4.472;2023-04-27T00:56:54;12.43;;;8.35;;
23714;SDS011;12036;50.858;4.472;2023-04-27T00:59:19;14.57;;;8.30;;
23714;SDS011;12036;50.858;4.472;2023-04-27T01:01:45;14.38;;;9.05;;
23714;SDS011;12036;50.858;4.472;2023-04-27T01:04:12;14.60;;;8.95;;
23714;SDS011;12036;50.858;4.472;2023-04-27T01:06:37;14.60;;;8.38;;
23714;SDS011;12036;50.858;4.472;2023-04-27T01:09:03;12.75;;;8.43;;
23714;SDS011;12036;50.858;4.472;2023-04-27T01:11:31;12.23;;;7.80;;
23714;SDS011;12036;50.858;4.472;2023-04-27T01:13:57;12.48;;;8.38;;
23714;SDS011;12036;50.858;4.472;2023-04-27T01:16:30;14.93;;;9.13;;
23714;SDS011;12036;50.858;4.472;2023-04-27T01:18:56;11.00;;;8.25;;
23714;SDS011;12036;50.858;4.472;2023-04-27T01:21:22;13.32;;;8.15;;
23714;SDS011;12036;50.858;4.472;2023-04-27T01:23:48;12.27;;;8.48;;
23714;SDS011;12036;50.858;4.472;2023-04-27T01:26:14;14.18;;;8.60;;
23714;SDS011;12036;50.858;4.472;2023-04-27T01:28:41;14.13;;;8.63;;
23714;SDS011;12036;50.858;4.472;2023-04-27T01:31:07;15.48;;;8.63;;
23714;SDS011;12036;50.858;4.472;2023-04-27T01:33:34;12.35;;;8.75;;
23714;SDS011;12036;50.858;4.472;2023-04-27T01:35:59;13.20;;;9.07;;
23714;SDS011;12036;50.858;4.472;2023-04-27T01:38:25;18.05;;;8.68;;
23714;SDS011;12036;50.858;4.472;2023-04-27T01:40:51;15.77;;;8.38;;
23714;SDS011;12036;50.858;4.472;2023-04-27T01:43:19;12.55;;;8.38;;
23714;SDS011;12036;50.858;4.472;2023-04-27T01:45:45;13.32;;;8.35;;
23714;SDS011;12036;50.858;4.472;2023-04-27T01:48:10;15.25;;;9.00;;
23714;SDS011;12036;50.858;4.472;2023-04-27T01:50:36;15.65;;;8.80;;
23714;SDS011;12036;50.858;4.472;2023-04-27T01:53:02;14.40;;;9.32;;
23714;SDS011;12036;50.858;4.472;2023-04-27T01:55:27;14.02;;;8.60;;
23714;SDS011;12036;50.858;4.472;2023-04-27T01:57:53;15.05;;;8.35;;
23714;SDS011;12036;50.858;4.472;2023-04-27T02:00:18;14.43;;;7.43;;
23714;SDS011;12036;50.858;4.472;2023-04-27T02:02:44;13.80;;;9.00;;
23714;SDS011;12036;50.858;4.472;2023-04-27T02:05:10;17.83;;;9.15;;
23714;SDS011;12036;50.858;4.472;2023-04-27T02:07:35;11.52;;;8.25;;
23714;SDS011;12036;50.858;4.472;2023-04-27T02:10:01;12.80;;;8.57;;
23714;SDS011;12036;50.858;4.472;2023-04-27T02:12:27;13.90;;;8.20;;
23714;SDS011;12036;50.858;4.472;2023-04-27T02:14:52;13.75;;;8.35;;
23714;SDS011;12036;50.858;4.472;2023-04-27T02:17:18;13.38;;;8.80;;
23714;SDS011;12036;50.858;4.472;2023-04-27T02:19:44;11.32;;;8.30;;
23714;SDS011;12036;50.858;4.472;2023-04-27T02:22:09;13.68;;;8.27;;
23714;SDS011;12036;50.858;4.472;2023-04-27T02:24:35;17.75;;;9.30;;
23714;SDS011;12036;50.858;4.472;2023-04-27T02:27:00;12.48;;;8.43;;
23714;SDS011;12036;50.858;4.472;2023-04-27T02:29:30;17.65;;;8.43;;
23714;SDS011;12036;50.858;4.472;2023-04-27T02:31:56;13.98;;;7.75;;
23714;SDS011;12036;50.858;4.472;2023-04-27T02:34:22;14.57;;;8.90;;
23714;SDS011;12036;50.858;4.472;2023-04-27T02:36:47;14.88;;;9.10;;
23714;SDS011;12036;50.858;4.472;2023-04-27T02:39:13;12.85;;;8.25;;
23714;SDS011;12036;50.858;4.472;2023-04-27T02:41:39;17.10;;;8.43;;
23714;SDS011;12036;50.858;4.472;2023-04-27T02:44:04;13.73;;;8.43;;
23714;SDS011;12036;50.858;4.472;2023-04-27T02:46:30;16.25;;;8.70;;
23714;SDS011;12036;50.858;4.472;2023-04-27T02:48:56;13.43;;;8.45;;
23714;SDS011;12036;50.858;4.472;2023-04-27T02:51:21;14.30;;;8.02;;
23714;SDS011;12036;50.858;4.472;2023-04-27T02:53:47;14.77;;;8.85;;
23714;SDS011;12036;50.858;4.472;2023-04-27T02:56:13;12.75;;;8.40;;
23714;SDS011;12036;50.858;4.472;2023-04-27T02:58:39;13.70;;;8.88;;
23714;SDS011;12036;50.858;4.472;2023-04-27T03:01:04;20.67;;;8.38;;
23714;SDS011;12036;50.858;4.472;2023-04-27T03:03:30;14.93;;;8.85;;
23714;SDS011;12036;50.858;4.472;2023-04-27T03:05:55;13.85;;;7.72;;
23714;SDS011;12036;50.858;4.472;2023-04-27T03:08:21;12.38;;;8.48;;
23714;SDS011;12036;50.858;4.472;2023-04-27T03:10:47;12.98;;;8.20;;
23714;SDS011;12036;50.858;4.472;2023-04-27T03:13:13;14.00;;;8.70;;
23714;SDS011;12036;50.858;4.472;2023-04-27T03:15:39;15.52;;;8.70;;
23714;SDS011;12036;50.858;4.472;2023-04-27T03:18:05;13.15;;;8.40;;
23714;SDS011;12036;50.858;4.472;2023-04-27T03:20:31;15.00;;;8.07;;
23714;SDS011;12036;50.858;4.472;2023-04-27T03:22:56;15.55;;;8.63;;
23714;SDS011;12036;50.858;4.472;2023-04-27T03:25:22;13.75;;;8.50;;
23714;SDS011;12036;50.858;4.472;2023-04-27T03:27:47;12.15;;;8.13;;
23714;SDS011;12036;50.858;4.472;2023-04-27T03:30:13;14.57;;;8.57;;
23714;SDS011;12036;50.858;4.472;2023-04-27T03:32:39;17.45;;;8.70;;
23714;SDS011;12036;50.858;4.472;2023-04-27T03:35:05;12.55;;;8.13;;
23714;SDS011;12036;50.858;4.472;2023-04-27T03:37:31;14.25;;;8.65;;
23714;SDS011;12036;50.858;4.472;2023-04-27T03:39:58;13.02;;;8.43;;
23714;SDS011;12036;50.858;4.472;2023-04-27T03:42:23;14.65;;;9.23;;
23714;SDS011;12036;50.858;4.472;2023-04-27T03:44:49;16.15;;;8.60;;
23714;SDS011;12036;50.858;4.472;2023-04-27T03:47:14;13.50;;;8.55;;
23714;SDS011;12036;50.858;4.472;2023-04-27T03:49:40;13.02;;;8.85;;
23714;SDS011;12036;50.858;4.472;2023-04-27T03:52:06;14.18;;;8.07;;
23714;SDS011;12036;50.858;4.472;2023-04-27T03:54:31;12.93;;;9.07;;
23714;SDS011;12036;50.858;4.472;2023-04-27T03:56:57;15.10;;;9.43;;
23714;SDS011;12036;50.858;4.472;2023-04-27T03:59:23;16.77;;;8.23;;
23714;SDS011;12036;50.858;4.472;2023-04-27T04:01:48;16.08;;;8.30;;
23714;SDS011;12036;50.858;4.472;2023-04-27T04:04:14;15.13;;;9.20;;
23714;SDS011;12036;50.858;4.472;2023-04-27T04:06:40;14.80;;;9.10;;
23714;SDS011;12036;50.858;4.472;2023-04-27T04:09:06;20.05;;;9.68;;
23714;SDS011;12036;50.858;4.472;2023-04-27T04:11:31;14.77;;;8.73;;
23714;SDS011;12036;50.858;4.472;2023-04-27T04:13:57;12.93;;;8.68;;
23714;SDS011;12036;50.858;4.472;2023-04-27T04:16:22;17.35;;;8.48;;
23714;SDS011;12036;50.858;4.472;2023-04-27T04:18:48;13.75;;;8.90;;
23714;SDS011;12036;50.858;4.472;2023-04-27T04:21:14;20.35;;;8.68;;
23714;SDS011;12036;50.858;4.472;2023-04-27T04:23:40;13.07;;;8.30;;
23714;SDS011;12036;50.858;4.472;2023-04-27T04:26:05;15.32;;;9.05;;
23714;SDS011;12036;50.858;4.472;2023-04-27T04:28:32;16.48;;;9.10;;
23714;SDS011;12036;50.858;4.472;2023-04-27T04:30:59;13.50;;;8.60;;
23714;SDS011;12036;50.858;4.472;2023-04-27T04:33:25;14.63;;;8.50;;
23714;SDS011;12036;50.858;4.472;2023-04-27T04:35:51;14.27;;;8.65;;
23714;SDS011;12036;50.858;4.472;2023-04-27T04:38:18;12.80;;;8.00;;
23714;SDS011;12036;50.858;4.472;2023-04-27T04:40:44;15.90;;;8.27;;
23714;SDS011;12036;50.858;4.472;2023-04-27T04:43:09;13.60;;;8.63;;
23714;SDS011;12036;50.858;4.472;2023-04-27T04:45:36;13.63;;;8.13;;
23714;SDS011;12036;50.858;4.472;2023-04-27T04:48:01;16.17;;;8.43;;
23714;SDS011;12036;50.858;4.472;2023-04-27T04:50:28;17.13;;;8.40;;
23714;SDS011;12036;50.858;4.472;2023-04-27T04:52:53;19.13;;;8.05;;
23714;SDS011;12036;50.858;4.472;2023-04-27T04:55:19;17.55;;;7.95;;
23714;SDS011;12036;50.858;4.472;2023-04-27T04:57:45;17.13;;;8.60;;
23714;SDS011;12036;50.858;4.472;2023-04-27T05:00:11;13.65;;;8.70;;
23714;SDS011;12036;50.858;4.472;2023-04-27T05:02:37;11.85;;;8.05;;
23714;SDS011;12036;50.858;4.472;2023-04-27T05:05:06;15.65;;;8.70;;
23714;SDS011;12036;50.858;4.472;2023-04-27T05:07:33;15.27;;;8.30;;
23714;SDS011;12036;50.858;4.472;2023-04-27T05:09:59;12.75;;;8.00;;
23714;SDS011;12036;50.858;4.472;2023-04-27T05:12:24;16.60;;;8.25;;
23714;SDS011;12036;50.858;4.472;2023-04-27T05:14:50;16.52;;;8.70;;
23714;SDS011;12036;50.858;4.472;2023-04-27T05:17:16;13.10;;;8.20;;
23714;SDS011;12036;50.858;4.472;2023-04-27T05:19:42;13.23;;;7.97;;
23714;SDS011;12036;50.858;4.472;2023-04-27T05:22:08;16.42;;;8.00;;
23714;SDS011;12036;50.858;4.472;2023-04-27T05:24:34;14.20;;;8.80;;
23714;SDS011;12036;50.858;4.472;2023-04-27T05:27:00;15.93;;;7.78;;
23714;SDS011;12036;50.858;4.472;2023-04-27T05:29:26;18.45;;;7.85;;
23714;SDS011;12036;50.858;4.472;2023-04-27T05:31:51;15.82;;;8.48;;
23714;SDS011;12036;50.858;4.472;2023-04-27T05:34:20;14.13;;;7.70;;
23714;SDS011;12036;50.858;4.472;2023-04-27T05:36:45;13.50;;;7.70;;
23714;SDS011;12036;50.858;4.472;2023-04-27T05:39:11;11.90;;;7.40;;
23714;SDS011;12036;50.858;4.472;2023-04-27T05:41:37;15.10;;;7.63;;
23714;SDS011;12036;50.858;4.472;2023-04-27T05:44:04;11.80;;;7.40;;
23714;SDS011;12036;50.858;4.472;2023-04-27T05:46:30;12.40;;;7.32;;
23714;SDS011;12036;50.858;4.472;2023-04-27T05:48:56;11.00;;;6.90;;
23714;SDS011;12036;50.858;4.472;2023-04-27T05:51:22;9.13;;;6.50;;
23714;SDS011;12036;50.858;4.472;2023-04-27T05:53:47;11.05;;;6.55;;
23714;SDS011;12036;50.858;4.472;2023-04-27T05:56:13;15.63;;;6.85;;
23714;SDS011;12036;50.858;4.472;2023-04-27T05:58:39;14.00;;;6.82;;
23714;SDS011;12036;50.858;4.472;2023-04-27T06:01:05;15.30;;;7.47;;
23714;SDS011;12036;50.858;4.472;2023-04-27T06:03:31;12.63;;;7.30;;
23714;SDS011;12036;50.858;4.472;2023-04-27T06:05:57;14.45;;;6.75;;
23714;SDS011;12036;50.858;4.472;2023-04-27T06:08:24;9.07;;;6.72;;
23714;SDS011;12036;50.858;4.472;2023-04-27T06:10:51;12.52;;;7.05;;
23714;SDS011;12036;50.858;4.472;2023-04-27T06:13:17;14.50;;;7.40;;
23714;SDS011;12036;50.858;4.472;2023-04-27T06:15:43;9.90;;;6.88;;
23714;SDS011;12036;50.858;4.472;2023-04-27T06:18:09;10.25;;;7.38;;
23714;SDS011;12036;50.858;4.472;2023-04-27T06:20:34;12.13;;;7.13;;
23714;SDS011;12036;50.858;4.472;2023-04-27T06:23:00;12.82;;;7.00;;
23714;SDS011;12036;50.858;4.472;2023-04-27T06:25:26;12.13;;;7.47;;
23714;SDS011;12036;50.858;4.472;2023-04-27T06:27:53;15.82;;;7.68;;
23714;SDS011;12036;50.858;4.472;2023-04-27T06:30:19;12.32;;;6.93;;
23714;SDS011;12036;50.858;4.472;2023-04-27T06:32:45;13.13;;;7.32;;
23714;SDS011;12036;50.858;4.472;2023-04-27T06:35:10;14.63;;;8.18;;
23714;SDS011;12036;50.858;4.472;2023-04-27T06:37:36;11.40;;;7.28;;
23714;SDS011;12036;50.858;4.472;2023-04-27T06:40:02;13.75;;;7.88;;
23714;SDS011;12036;50.858;4.472;2023-04-27T06:42:28;15.45;;;7.68;;
23714;SDS011;12036;50.858;4.472;2023-04-27T06:44:54;12.52;;;6.65;;
23714;SDS011;12036;50.858;4.472;2023-04-27T06:47:20;11.18;;;6.90;;
23714;SDS011;12036;50.858;4.472;2023-04-27T06:49:46;15.63;;;7.20;;
23714;SDS011;12036;50.858;4.472;2023-04-27T06:52:12;15.85;;;8.18;;
23714;SDS011;12036;50.858;4.472;2023-04-27T06:54:38;12.27;;;7.10;;
23714;SDS011;12036;50.858;4.472;2023-04-27T06:57:03;13.23;;;7.20;;
23714;SDS011;12036;50.858;4.472;2023-04-27T06:59:30;12.40;;;6.70;;
23714;SDS011;12036;50.858;4.472;2023-04-27T07:01:55;13.60;;;6.97;;
23714;SDS011;12036;50.858;4.472;2023-04-27T07:04:22;14.63;;;7.20;;
23714;SDS011;12036;50.858;4.472;2023-04-27T07:06:48;11.98;;;6.82;;
23714;SDS011;12036;50.858;4.472;2023-04-27T07:09:13;13.85;;;6.65;;
23714;SDS011;12036;50.858;4.472;2023-04-27T07:11:39;9.07;;;6.15;;
23714;SDS011;12036;50.858;4.472;2023-04-27T07:14:05;13.65;;;7.43;;
23714;SDS011;12036;50.858;4.472;2023-04-27T07:16:31;13.20;;;7.43;;
23714;SDS011;12036;50.858;4.472;2023-04-27T07:18:56;12.27;;;7.75;;
23714;SDS011;12036;50.858;4.472;2023-04-27T07:21:22;9.20;;;6.85;;
23714;SDS011;12036;50.858;4.472;2023-04-27T07:23:48;15.25;;;7.78;;
23714;SDS011;12036;50.858;4.472;2023-04-27T07:26:13;14.73;;;7.75;;
23714;SDS011;12036;50.858;4.472;2023-04-27T07:28:39;10.90;;;7.65;;
23714;SDS011;12036;50.858;4.472;2023-04-27T07:31:05;11.07;;;8.18;;
23714;SDS011;12036;50.858;4.472;2023-04-27T07:33:32;13.73;;;8.02;;
23714;SDS011;12036;50.858;4.472;2023-04-27T07:35:58;11.93;;;7.72;;
23714;SDS011;12036;50.858;4.472;2023-04-27T07:38:24;13.80;;;8.38;;
23714;SDS011;12036;50.858;4.472;2023-04-27T07:40:50;15.52;;;8.88;;
23714;SDS011;12036;50.858;4.472;2023-04-27T07:43:16;15.82;;;8.48;;
23714;SDS011;12036;50.858;4.472;2023-04-27T07:45:42;14.38;;;8.50;;
23714;SDS011;12036;50.858;4.472;2023-04-27T07:48:09;16.30;;;9.48;;
23714;SDS011;12036;50.858;4.472;2023-04-27T07:50:35;15.43;;;8.82;;
23714;SDS011;12036;50.858;4.472;2023-04-27T07:53:01;19.50;;;9.38;;
23714;SDS011;12036;50.858;4.472;2023-04-27T07:55:27;15.77;;;9.38;;
23714;SDS011;12036;50.858;4.472;2023-04-27T07:57:53;20.77;;;10.23;;
23714;SDS011;12036;50.858;4.472;2023-04-27T08:00:20;13.65;;;9.43;;
23714;SDS011;12036;50.858;4.472;2023-04-27T08:02:46;16.25;;;9.57;;
23714;SDS011;12036;50.858;4.472;2023-04-27T08:05:12;18.83;;;9.68;;
23714;SDS011;12036;50.858;4.472;2023-04-27T08:07:38;18.17;;;10.55;;
23714;SDS011;12036;50.858;4.472;2023-04-27T08:10:04;18.92;;;9.48;;
23714;SDS011;12036;50.858;4.472;2023-04-27T08:12:31;15.95;;;10.48;;
23714;SDS011;12036;50.858;4.472;2023-04-27T08:14:58;17.05;;;11.15;;
23714;SDS011;12036;50.858;4.472;2023-04-27T08:17:23;17.65;;;11.13;;
23714;SDS011;12036;50.858;4.472;2023-04-27T08:19:49;16.15;;;10.38;;
23714;SDS011;12036;50.858;4.472;2023-04-27T08:22:15;18.98;;;11.48;;
23714;SDS011;12036;50.858;4.472;2023-04-27T08:24:41;20.15;;;11.95;;
23714;SDS011;12036;50.858;4.472;2023-04-27T08:27:06;19.70;;;10.82;;
23714;SDS011;12036;50.858;4.472;2023-04-27T08:29:33;20.55;;;11.02;;
23714;SDS011;12036;50.858;4.472;2023-04-27T08:31:59;20.05;;;11.45;;
23714;SDS011;12036;50.858;4.472;2023-04-27T08:34:27;17.10;;;10.30;;
23714;SDS011;12036;50.858;4.472;2023-04-27T08:36:53;14.35;;;10.18;;
23714;SDS011;12036;50.858;4.472;2023-04-27T08:39:19;16.75;;;11.18;;
23714;SDS011;12036;50.858;4.472;2023-04-27T08:41:45;18.33;;;10.70;;
23714;SDS011;12036;50.858;4.472;2023-04-27T08:44:11;18.92;;;10.43;;
23714;SDS011;12036;50.858;4.472;2023-04-27T08:46:37;18.27;;;10.82;;
23714;SDS011;12036;50.858;4.472;2023-04-27T08:49:03;14.65;;;10.38;;
23714;SDS011;12036;50.858;4.472;2023-04-27T08:51:30;18.65;;;10.73;;
23714;SDS011;12036;50.858;4.472;2023-04-27T08:53:57;16.52;;;10.63;;
23714;SDS011;12036;50.858;4.472;2023-04-27T08:56:23;18.60;;;10.80;;
23714;SDS011;12036;50.858;4.472;2023-04-27T08:58:51;19.63;;;10.95;;
23714;SDS011;12036;50.858;4.472;2023-04-27T09:01:18;20.58;;;10.30;;
23714;SDS011;12036;50.858;4.472;2023-04-27T09:03:45;19.75;;;10.52;;
23714;SDS011;12036;50.858;4.472;2023-04-27T09:06:14;16.35;;;9.52;;
23714;SDS011;12036;50.858;4.472;2023-04-27T09:11:06;19.00;;;9.38;;
23714;SDS011;12036;50.858;4.472;2023-04-27T09:13:35;16.42;;;9.60;;
23714;SDS011;12036;50.858;4.472;2023-04-27T09:16:01;17.20;;;9.10;;
23714;SDS011;12036;50.858;4.472;2023-04-27T09:18:27;14.85;;;9.60;;
23714;SDS011;12036;50.858;4.472;2023-04-27T09:20:53;13.65;;;9.10;;
23714;SDS011;12036;50.858;4.472;2023-04-27T09:23:25;12.95;;;8.27;;
23714;SDS011;12036;50.858;4.472;2023-04-27T09:25:56;17.50;;;8.55;;
23714;SDS011;12036;50.858;4.472;2023-04-27T09:28:23;11.65;;;7.90;;
23714;SDS011;12036;50.858;4.472;2023-04-27T09:30:55;13.02;;;7.43;;
23714;SDS011;12036;50.858;4.472;2023-04-27T09:33:25;11.45;;;7.38;;
23714;SDS011;12036;50.858;4.472;2023-04-27T09:35:52;12.52;;;7.95;;
23714;SDS011;12036;50.858;4.472;2023-04-27T09:38:19;9.90;;;7.05;;
23714;SDS011;12036;50.858;4.472;2023-04-27T09:40:45;14.15;;;8.20;;
23714;SDS011;12036;50.858;4.472;2023-04-27T09:43:12;10.15;;;7.05;;
23714;SDS011;12036;50.858;4.472;2023-04-27T09:45:38;10.63;;;7.57;;
23714;SDS011;12036;50.858;4.472;2023-04-27T09:48:05;8.55;;;6.25;;
23714;SDS011;12036;50.858;4.472;2023-04-27T09:50:40;10.68;;;7.10;;
23714;SDS011;12036;50.858;4.472;2023-04-27T09:53:09;13.27;;;8.02;;
23714;SDS011;12036;50.858;4.472;2023-04-27T09:55:38;13.65;;;7.97;;
23714;SDS011;12036;50.858;4.472;2023-04-27T10:09:41;13.52;;;7.30;;
23714;SDS011;12036;50.858;4.472;2023-04-27T10:12:16;10.90;;;7.32;;
23714;SDS011;12036;50.858;4.472;2023-04-27T10:14:49;12.65;;;6.90;;
23714;SDS011;12036;50.858;4.472;2023-04-27T10:17:23;9.05;;;6.88;;
23714;SDS011;12036;50.858;4.472;2023-04-27T10:20:00;9.60;;;6.10;;
23714;SDS011;12036;50.858;4.472;2023-04-27T10:22:42;13.20;;;6.47;;
23714;SDS011;12036;50.858;4.472;2023-04-27T10:27:42;9.05;;;6.40;;
23714;SDS011;12036;50.858;4.472;2023-04-27T10:30:12;12.40;;;8.05;;
23714;SDS011;12036;50.858;4.472;2023-04-27T10:32:48;10.57;;;7.75;;
23714;SDS011;12036;50.858;4.472;2023-04-27T10:35:15;13.60;;;7.90;;
23714;SDS011;12036;50.858;4.472;2023-04-27T10:37:41;13.23;;;7.78;;
23714;SDS011;12036;50.858;4.472;2023-04-27T10:40:08;13.32;;;7.15;;
23714;SDS011;12036;50.858;4.472;2023-04-27T10:42:38;11.65;;;7.07;;
23714;SDS011;12036;50.858;4.472;2023-04-27T10:45:04;10.38;;;6.75;;
23714;SDS011;12036;50.858;4.472;2023-04-27T10:47:38;12.15;;;7.57;;
23714;SDS011;12036;50.858;4.472;2023-04-27T10:50:08;13.52;;;7.60;;
23714;SDS011;12036;50.858;4.472;2023-04-27T10:52:41;12.88;;;7.25;;
23714;SDS011;12036;50.858;4.472;2023-04-27T10:55:17;10.23;;;7.25;;
23714;SDS011;12036;50.858;4.472;2023-04-27T10:57:45;13.10;;;7.65;;
23714;SDS011;12036;50.858;4.472;2023-04-27T11:00:15;11.03;;;7.73;;
23714;SDS011;12036;50.858;4.472;2023-04-27T11:02:52;13.15;;;7.93;;
23714;SDS011;12036;50.858;4.472;2023-04-27T11:05:19;14.18;;;7.60;;
23714;SDS011;12036;50.858;4.472;2023-04-27T11:07:46;12.85;;;7.15;;
23714;SDS011;12036;50.858;4.472;2023-04-27T11:10:18;9.25;;;6.30;;
23714;SDS011;12036;50.858;4.472;2023-04-27T11:12:44;9.88;;;7.05;;
23714;SDS011;12036;50.858;4.472;2023-04-27T11:15:10;10.57;;;6.40;;
23714;SDS011;12036;50.858;4.472;2023-04-27T11:17:38;12.18;;;6.57;;
23714;SDS011;12036;50.858;4.472;2023-04-27T11:20:04;9.13;;;5.75;;
23714;SDS011;12036;50.858;4.472;2023-04-27T11:22:32;9.77;;;5.90;;
23714;SDS011;12036;50.858;4.472;2023-04-27T11:24:59;10.27;;;6.13;;
23714;SDS011;12036;50.858;4.472;2023-04-27T11:27:34;10.75;;;6.30;;
23714;SDS011;12036;50.858;4.472;2023-04-27T11:30:04;10.98;;;6.22;;
23714;SDS011;12036;50.858;4.472;2023-04-27T11:32:31;9.00;;;5.93;;
23714;SDS011;12036;50.858;4.472;2023-04-27T11:34:57;10.10;;;6.68;;
23714;SDS011;12036;50.858;4.472;2023-04-27T11:37:24;8.32;;;5.90;;
23714;SDS011;12036;50.858;4.472;2023-04-27T11:39:51;9.40;;;6.00;;
23714;SDS011;12036;50.858;4.472;2023-04-27T11:42:25;11.63;;;6.00;;
23714;SDS011;12036;50.858;4.472;2023-04-27T11:47:20;10.48;;;6.55;;
23714;SDS011;12036;50.858;4.472;2023-04-27T11:49:47;11.10;;;6.15;;
23714;SDS011;12036;50.858;4.472;2023-04-27T11:52:19;9.85;;;6.45;;
23714;SDS011;12036;50.858;4.472;2023-04-27T11:54:49;9.85;;;5.53;;
23714;SDS011;12036;50.858;4.472;2023-04-27T11:57:17;9.15;;;5.68;;
23714;SDS011;12036;50.858;4.472;2023-04-27T11:59:49;13.27;;;6.90;;
23714;SDS011;12036;50.858;4.472;2023-04-27T12:02:15;10.65;;;6.38;;
23714;SDS011;12036;50.858;4.472;2023-04-27T12:04:41;9.65;;;6.60;;
23714;SDS011;12036;50.858;4.472;2023-04-27T12:07:07;6.85;;;4.55;;
23714;SDS011;12036;50.858;4.472;2023-04-27T12:09:32;10.30;;;6.32;;
23714;SDS011;12036;50.858;4.472;2023-04-27T12:11:58;8.73;;;6.60;;
23714;SDS011;12036;50.858;4.472;2023-04-27T12:14:24;13.27;;;7.05;;
23714;SDS011;12036;50.858;4.472;2023-04-27T12:16:50;11.77;;;6.85;;
23714;SDS011;12036;50.858;4.472;2023-04-27T12:19:15;9.27;;;6.43;;
23714;SDS011;12036;50.858;4.472;2023-04-27T12:21:41;10.25;;;7.40;;
23714;SDS011;12036;50.858;4.472;2023-04-27T12:24:07;12.40;;;7.35;;
23714;SDS011;12036;50.858;4.472;2023-04-27T12:26:32;14.43;;;7.45;;
23714;SDS011;12036;50.858;4.472;2023-04-27T12:28:59;12.00;;;7.60;;
23714;SDS011;12036;50.858;4.472;2023-04-27T12:31:27;13.77;;;7.78;;
23714;SDS011;12036;50.858;4.472;2023-04-27T12:33:53;11.88;;;8.00;;
23714;SDS011;12036;50.858;4.472;2023-04-27T12:36:19;16.45;;;8.00;;
23714;SDS011;12036;50.858;4.472;2023-04-27T12:38:45;12.65;;;7.38;;
23714;SDS011;12036;50.858;4.472;2023-04-27T12:41:11;12.90;;;7.85;;
23714;SDS011;12036;50.858;4.472;2023-04-27T12:43:36;11.20;;;7.20;;
23714;SDS011;12036;50.858;4.472;2023-04-27T12:46:04;11.95;;;7.15;;
23714;SDS011;12036;50.858;4.472;2023-04-27T12:48:29;10.20;;;7.13;;
23714;SDS011;12036;50.858;4.472;2023-04-27T12:50:55;14.95;;;8.45;;
23714;SDS011;12036;50.858;4.472;2023-04-27T12:53:21;12.60;;;7.07;;
23714;SDS011;12036;50.858;4.472;2023-04-27T12:55:47;13.90;;;7.50;;
23714;SDS011;12036;50.858;4.472;2023-04-27T12:58:12;11.20;;;7.82;;
23714;SDS011;12036;50.858;4.472;2023-04-27T13:00:38;11.20;;;7.05;;
23714;SDS011;12036;50.858;4.472;2023-04-27T13:03:04;13.27;;;7.85;;
23714;SDS011;12036;50.858;4.472;2023-04-27T13:05:30;10.20;;;6.80;;
23714;SDS011;12036;50.858;4.472;2023-04-27T13:07:56;11.68;;;7.30;;
23714;SDS011;12036;50.858;4.472;2023-04-27T13:10:22;12.35;;;8.02;;
23714;SDS011;12036;50.858;4.472;2023-04-27T13:12:47;16.40;;;7.88;;
23714;SDS011;12036;50.858;4.472;2023-04-27T13:15:13;10.65;;;7.45;;
23714;SDS011;12036;50.858;4.472;2023-04-27T13:17:39;11.95;;;7.30;;
23714;SDS011;12036;50.858;4.472;2023-04-27T13:20:05;12.05;;;7.15;;
23714;SDS011;12036;50.858;4.472;2023-04-27T13:22:31;11.57;;;6.70;;
23714;SDS011;12036;50.858;4.472;2023-04-27T13:24:57;13.02;;;7.00;;
23714;SDS011;12036;50.858;4.472;2023-04-27T13:27:22;12.18;;;7.60;;
23714;SDS011;12036;50.858;4.472;2023-04-27T13:29:49;10.93;;;6.60;;
23714;SDS011;12036;50.858;4.472;2023-04-27T13:32:15;10.05;;;7.28;;
23714;SDS011;12036;50.858;4.472;2023-04-27T13:34:41;11.43;;;7.88;;
23714;SDS011;12036;50.858;4.472;2023-04-27T13:37:06;13.30;;;7.35;;
23714;SDS011;12036;50.858;4.472;2023-04-27T13:39:32;10.63;;;7.03;;
23714;SDS011;12036;50.858;4.472;2023-04-27T13:41:58;10.73;;;6.97;;
23714;SDS011;12036;50.858;4.472;2023-04-27T13:44:23;11.88;;;6.82;;
23714;SDS011;12036;50.858;4.472;2023-04-27T13:46:49;11.13;;;7.05;;
23714;SDS011;12036;50.858;4.472;2023-04-27T13:49:15;10.70;;;7.15;;
23714;SDS011;12036;50.858;4.472;2023-04-27T13:51:40;11.32;;;6.82;;
23714;SDS011;12036;50.858;4.472;2023-04-27T13:54:06;10.57;;;7.15;;
23714;SDS011;12036;50.858;4.472;2023-04-27T13:56:32;13.15;;;7.63;;
23714;SDS011;12036;50.858;4.472;2023-04-27T13:58:57;11.82;;;7.68;;
23714;SDS011;12036;50.858;4.472;2023-04-27T14:01:24;14.95;;;7.35;;
23714;SDS011;12036;50.858;4.472;2023-04-27T14:03:50;14.82;;;8.05;;
23714;SDS011;12036;50.858;4.472;2023-04-27T14:06:16;11.50;;;7.47;;
23714;SDS011;12036;50.858;4.472;2023-04-27T14:08:42;10.25;;;6.78;;
23714;SDS011;12036;50.858;4.472;2023-04-27T14:11:07;11.85;;;7.70;;
23714;SDS011;12036;50.858;4.472;2023-04-27T14:13:37;12.02;;;7.07;;
23714;SDS011;12036;50.858;4.472;2023-04-27T14:16:02;12.20;;;7.32;;
23714;SDS011;12036;50.858;4.472;2023-04-27T14:18:28;12.77;;;6.80;;
23714;SDS011;12036;50.858;4.472;2023-04-27T14:20:54;11.85;;;7.22;;
23714;SDS011;12036;50.858;4.472;2023-04-27T14:23:20;11.85;;;7.05;;
23714;SDS011;12036;50.858;4.472;2023-04-27T14:25:46;12.23;;;6.63;;
23714;SDS011;12036;50.858;4.472;2023-04-27T14:28:12;10.68;;;5.93;;
23714;SDS011;12036;50.858;4.472;2023-04-27T14:30:38;14.18;;;7.80;;
23714;SDS011;12036;50.858;4.472;2023-04-27T14:33:04;9.27;;;6.85;;
23714;SDS011;12036;50.858;4.472;2023-04-27T14:35:32;13.57;;;7.65;;
23714;SDS011;12036;50.858;4.472;2023-04-27T14:37:58;12.40;;;7.68;;
23714;SDS011;12036;50.858;4.472;2023-04-27T14:40:27;15.48;;;8.38;;
23714;SDS011;12036;50.858;4.472;2023-04-27T14:42:53;14.27;;;7.93;;
23714;SDS011;12036;50.858;4.472;2023-04-27T14:45:19;11.43;;;8.15;;
23714;SDS011;12036;50.858;4.472;2023-04-27T14:47:45;14.07;;;8.32;;